sensor_id;sensor_type;location;lat;lon;timestamp;pressure;altitude;pressure_sealevel;temperature;humidity
34931;BME280;21134;49.646;8.560;2023-09-18T00:01:50;99681.63;;;20.48;85.82
34931;BME280;21134;49.646;8.560;2023-09-18T00:04:17;99681.63;;;20.48;85.70
34931;BME280;21134;49.646;8.560;2023-09-18T00:06:43;99685.00;;;20.50;86.08
34931;BME280;21134;49.646;8.560;2023-09-18T00:09:10;99684.34;;;20.46;86.51
34931;BME280;21134;49.646;8.560;2023-09-18T00:11:40;99673.94;;;20.46;86.49
34931;BME280;21134;49.646;8.560;2023-09-18T00:14:07;99671.25;;;20.48;86.69
34931;BME280;21134;49.646;8.560;2023-09-18T00:16:34;99660.84;;;20.48;86.45
34931;BME280;21134;49.646;8.560;2023-09-18T00:19:01;99648.03;;;20.44;86.65
34931;BME280;21134;49.646;8.560;2023-09-18T00:21:28;99651.56;;;20.43;86.53
34931;BME280;21134;49.646;8.560;2023-09-18T00:23:55;99646.41;;;20.42;86.47
34931;BME280;21134;49.646;8.560;2023-09-18T00:26:22;99649.78;;;20.44;86.21
34931;BME280;21134;49.646;8.560;2023-09-18T00:28:50;99641.75;;;20.49;86.13
34931;BME280;21134;49.646;8.560;2023-09-18T00:31:16;99646.19;;;20.47;86.24
34931;BME280;21134;49.646;8.560;2023-09-18T00:33:43;99646.19;;;20.47;86.46
34931;BME280;21134;49.646;8.560;2023-09-18T00:36:09;99635.28;;;20.40;86.91
34931;BME280;21134;49.646;8.560;2023-09-18T00:38:36;99625.25;;;20.34;87.20
34931;BME280;21134;49.646;8.560;2023-09-18T00:41:02;99621.13;;;20.30;87.17
34931;BME280;21134;49.646;8.560;2023-09-18T00:43:29;99608.38;;;20.25;87.30
34931;BME280;21134;49.646;8.560;2023-09-18T00:45:56;99611.81;;;20.26;87.63
34931;BME280;21134;49.646;8.560;2023-09-18T00:48:23;99613.84;;;20.20;87.83
34931;BME280;21134;49.646;8.560;2023-09-18T00:50:51;99621.66;;;20.20;87.93
34931;BME280;21134;49.646;8.560;2023-09-18T00:53:19;99614.75;;;20.19;87.49
34931;BME280;21134;49.646;8.560;2023-09-18T00:55:46;99610.41;;;20.20;87.26
34931;BME280;21134;49.646;8.560;2023-09-18T00:58:14;99610.41;;;20.20;87.35
34931;BME280;21134;49.646;8.560;2023-09-18T01:00:41;99599.09;;;20.21;86.95
34931;BME280;21134;49.646;8.560;2023-09-18T01:03:09;99597.34;;;20.21;87.26
34931;BME280;21134;49.646;8.560;2023-09-18T01:05:36;99603.13;;;20.27;87.05
34931;BME280;21134;49.646;8.560;2023-09-18T01:08:03;99610.25;;;20.23;87.10
34931;BME280;21134;49.646;8.560;2023-09-18T01:10:33;99594.06;;;20.18;87.21
34931;BME280;21134;49.646;8.560;2023-09-18T01:13:04;99592.47;;;20.15;87.57
34931;BME280;21134;49.646;8.560;2023-09-18T01:15:35;99597.00;;;20.12;87.75
34931;BME280;21134;49.646;8.560;2023-09-18T01:18:03;99606.56;;;20.11;87.45
34931;BME280;21134;49.646;8.560;2023-09-18T01:20:31;99606.63;;;20.10;87.17
34931;BME280;21134;49.646;8.560;2023-09-18T01:22:58;99605.63;;;20.12;87.41
34931;BME280;21134;49.646;8.560;2023-09-18T01:25:25;99600.53;;;20.11;87.04
34931;BME280;21134;49.646;8.560;2023-09-18T01:27:51;99602.13;;;20.13;87.42
34931;BME280;21134;49.646;8.560;2023-09-18T01:30:18;99616.84;;;20.13;87.85
34931;BME280;21134;49.646;8.560;2023-09-18T01:32:46;99620.22;;;20.15;88.31
34931;BME280;21134;49.646;8.560;2023-09-18T01:35:14;99617.44;;;20.18;88.50
34931;BME280;21134;49.646;8.560;2023-09-18T01:37:41;99603.63;;;20.17;90.13
34931;BME280;21134;49.646;8.560;2023-09-18T01:40:11;99596.84;;;20.15;91.28
34931;BME280;21134;49.646;8.560;2023-09-18T01:42:39;99597.00;;;20.12;92.75
34931;BME280;21134;49.646;8.560;2023-09-18T01:45:07;99605.63;;;20.12;92.97
34931;BME280;21134;49.646;8.560;2023-09-18T01:47:34;99606.56;;;20.11;93.70
34931;BME280;21134;49.646;8.560;2023-09-18T01:50:02;99603.19;;;20.09;94.13
34931;BME280;21134;49.646;8.560;2023-09-18T01:52:30;99610.31;;;20.06;94.06
34931;BME280;21134;49.646;8.560;2023-09-18T01:54:57;99644.84;;;20.08;93.57
34931;BME280;21134;49.646;8.560;2023-09-18T01:57:25;99736.34;;;20.13;90.88
34931;BME280;21134;49.646;8.560;2023-09-18T01:59:51;99793.03;;;20.38;87.27
34931;BME280;21134;49.646;8.560;2023-09-18T02:02:18;99753.66;;;20.30;91.02
34931;BME280;21134;49.646;8.560;2023-09-18T02:04:45;99768.28;;;20.15;95.21
34931;BME280;21134;49.646;8.560;2023-09-18T02:07:12;99734.00;;;20.08;97.20
34931;BME280;21134;49.646;8.560;2023-09-18T02:09:43;99739.13;;;19.92;98.73
34931;BME280;21134;49.646;8.560;2023-09-18T02:12:09;99728.41;;;19.83;99.81
34931;BME280;21134;49.646;8.560;2023-09-18T02:14:43;99739.53;;;19.85;100.00
34931;BME280;21134;49.646;8.560;2023-09-18T02:17:10;99697.47;;;19.78;100.00
34931;BME280;21134;49.646;8.560;2023-09-18T02:19:37;99676.00;;;19.74;100.00
34931;BME280;21134;49.646;8.560;2023-09-18T02:22:04;99667.06;;;19.80;100.00
34931;BME280;21134;49.646;8.560;2023-09-18T02:24:30;99671.44;;;19.80;100.00
34931;BME280;21134;49.646;8.560;2023-09-18T02:26:57;99670.50;;;19.81;100.00
34931;BME280;21134;49.646;8.560;2023-09-18T02:29:23;99678.22;;;19.82;100.00
34931;BME280;21134;49.646;8.560;2023-09-18T02:31:51;99681.66;;;19.83;100.00
34931;BME280;21134;49.646;8.560;2023-09-18T02:34:18;99695.94;;;19.91;100.00
34931;BME280;21134;49.646;8.560;2023-09-18T02:36:45;99685.19;;;19.82;100.00
34931;BME280;21134;49.646;8.560;2023-09-18T02:39:12;99687.63;;;19.85;100.00
34931;BME280;21134;49.646;8.560;2023-09-18T02:41:38;99682.13;;;19.73;100.00
34931;BME280;21134;49.646;8.560;2023-09-18T02:44:05;99683.22;;;19.69;100.00
34931;BME280;21134;49.646;8.560;2023-09-18T02:46:32;99675.66;;;19.65;100.00
34931;BME280;21134;49.646;8.560;2023-09-18T02:48:59;99679.25;;;19.62;100.00
34931;BME280;21134;49.646;8.560;2023-09-18T02:51:26;99686.16;;;19.62;100.00
34931;BME280;21134;49.646;8.560;2023-09-18T02:53:52;99679.47;;;19.58;100.00
34931;BME280;21134;49.646;8.560;2023-09-18T02:56:19;99674.38;;;19.56;100.00
34931;BME280;21134;49.646;8.560;2023-09-18T02:58:45;99661.59;;;19.51;100.00
34931;BME280;21134;49.646;8.560;2023-09-18T03:01:12;99659.69;;;19.55;100.00
34931;BME280;21134;49.646;8.560;2023-09-18T03:03:38;99645.88;;;19.55;100.00
34931;BME280;21134;49.646;8.560;2023-09-18T03:06:08;99649.81;;;19.62;100.00
34931;BME280;21134;49.646;8.560;2023-09-18T03:08:35;99649.00;;;19.61;100.00
34931;BME280;21134;49.646;8.560;2023-09-18T03:11:02;99639.31;;;19.65;100.00
34931;BME280;21134;49.646;8.560;2023-09-18T03:13:29;99625.63;;;19.61;100.00
34931;BME280;21134;49.646;8.560;2023-09-18T03:15:56;99619.78;;;19.58;100.00
34931;BME280;21134;49.646;8.560;2023-09-18T03:18:22;99612.91;;;19.57;100.00
34931;BME280;21134;49.646;8.560;2023-09-18T03:20:49;99617.78;;;19.63;100.00
34931;BME280;21134;49.646;8.560;2023-09-18T03:23:17;99611.44;;;19.68;100.00
34931;BME280;21134;49.646;8.560;2023-09-18T03:25:43;99616.78;;;19.65;100.00
34931;BME280;21134;49.646;8.560;2023-09-18T03:28:10;99623.81;;;19.63;100.00
34931;BME280;21134;49.646;8.560;2023-09-18T03:30:36;99628.09;;;19.64;100.00
34931;BME280;21134;49.646;8.560;2023-09-18T03:33:03;99634.25;;;19.62;100.00
34931;BME280;21134;49.646;8.560;2023-09-18T03:35:32;99633.50;;;19.60;100.00
34931;BME280;21134;49.646;8.560;2023-09-18T03:37:58;99624.75;;;19.62;100.00
34931;BME280;21134;49.646;8.560;2023-09-18T03:40:26;99617.94;;;19.60;100.00
34931;BME280;21134;49.646;8.560;2023-09-18T03:42:53;99610.06;;;19.61;100.00
34931;BME280;21134;49.646;8.560;2023-09-18T03:45:19;99605.88;;;19.59;100.00
34931;BME280;21134;49.646;8.560;2023-09-18T03:47:46;99604.03;;;19.61;100.00
34931;BME280;21134;49.646;8.560;2023-09-18T03:50:15;99614.34;;;19.62;100.00
34931;BME280;21134;49.646;8.560;2023-09-18T03:52:41;99630.97;;;19.58;100.00
34931;BME280;21134;49.646;8.560;2023-09-18T03:55:08;99630.09;;;19.59;100.00
34931;BME280;21134;49.646;8.560;2023-09-18T03:57:36;99627.50;;;19.59;100.00
34931;BME280;21134;49.646;8.560;2023-09-18T04:00:04;99643.63;;;19.66;100.00
34931;BME280;21134;49.646;8.560;2023-09-18T04:02:32;99643.75;;;19.63;100.00
34931;BME280;21134;49.646;8.560;2023-09-18T04:04:59;99647.03;;;19.66;100.00
34931;BME280;21134;49.646;8.560;2023-09-18T04:07:25;99655.56;;;19.68;100.00
34931;BME280;21134;49.646;8.560;2023-09-18T04:09:52;99657.31;;;19.68;100.00
34931;BME280;21134;49.646;8.560;2023-09-18T04:12:18;99658.09;;;19.70;100.00
34931;BME280;21134;49.646;8.560;2023-09-18T04:14:46;99665.94;;;19.68;100.00
34931;BME280;21134;49.646;8.560;2023-09-18T04:17:13;99656.44;;;19.69;100.00
34931;BME280;21134;49.646;8.560;2023-09-18T04:19:40;99667.50;;;19.72;100.00
34931;BME280;21134;49.646;8.560;2023-09-18T04:22:08;99663.19;;;19.71;100.00
34931;BME280;21134;49.646;8.560;2023-09-18T04:24:35;99631.16;;;19.72;100.00
34931;BME280;21134;49.646;8.560;2023-09-18T04:27:02;99649.91;;;19.78;100.00
34931;BME280;21134;49.646;8.560;2023-09-18T04:29:28;99656.78;;;19.79;100.00
34931;BME280;21134;49.646;8.560;2023-09-18T04:31:56;99637.84;;;19.77;100.00
34931;BME280;21134;49.646;8.560;2023-09-18T04:34:23;99625.47;;;19.82;100.00
34931;BME280;21134;49.646;8.560;2023-09-18T04:36:50;99619.56;;;19.78;100.00
34931;BME280;21134;49.646;8.560;2023-09-18T04:39:16;99622.88;;;19.82;100.00
34931;BME280;21134;49.646;8.560;2023-09-18T04:41:43;99622.00;;;19.81;100.00
34931;BME280;21134;49.646;8.560;2023-09-18T04:44:09;99595.22;;;19.81;100.00
34931;BME280;21134;49.646;8.560;2023-09-18T04:46:38;99591.13;;;19.77;100.00
34931;BME280;21134;49.646;8.560;2023-09-18T04:49:06;99583.94;;;19.82;100.00
34931;BME280;21134;49.646;8.560;2023-09-18T04:51:32;99588.34;;;19.80;100.00
34931;BME280;21134;49.646;8.560;2023-09-18T04:53:59;99594.56;;;19.77;100.00
34931;BME280;21134;49.646;8.560;2023-09-18T04:56:25;99592.06;;;19.76;100.00
34931;BME280;21134;49.646;8.560;2023-09-18T04:58:52;99602.34;;;19.77;100.00
34931;BME280;21134;49.646;8.560;2023-09-18T05:01:19;99598.25;;;19.73;100.00
34931;BME280;21134;49.646;8.560;2023-09-18T05:03:45;99583.59;;;19.72;100.00
34931;BME280;21134;49.646;8.560;2023-09-18T05:06:15;99589.00;;;19.67;100.00
34931;BME280;21134;49.646;8.560;2023-09-18T05:08:42;99595.53;;;19.74;100.00
34931;BME280;21134;49.646;8.560;2023-09-18T05:11:08;99595.03;;;19.68;100.00
34931;BME280;21134;49.646;8.560;2023-09-18T05:13:35;99602.28;;;19.61;100.00
34931;BME280;21134;49.646;8.560;2023-09-18T05:16:01;99619.94;;;19.55;100.00
34931;BME280;21134;49.646;8.560;2023-09-18T05:18:28;99620.84;;;19.54;100.00
34931;BME280;21134;49.646;8.560;2023-09-18T05:20:55;99621.53;;;19.57;100.00
34931;BME280;21134;49.646;8.560;2023-09-18T05:23:23;99611.31;;;19.54;100.00
34931;BME280;21134;49.646;8.560;2023-09-18T05:25:49;99628.78;;;19.50;100.00
34931;BME280;21134;49.646;8.560;2023-09-18T05:28:16;99647.03;;;19.49;100.00
34931;BME280;21134;49.646;8.560;2023-09-18T05:30:42;99658.22;;;19.49;100.00
34931;BME280;21134;49.646;8.560;2023-09-18T05:33:09;99672.91;;;19.50;100.00
34931;BME280;21134;49.646;8.560;2023-09-18T05:35:39;99692.84;;;19.50;100.00
34931;BME280;21134;49.646;8.560;2023-09-18T05:38:05;99691.81;;;19.52;100.00
34931;BME280;21134;49.646;8.560;2023-09-18T05:40:33;99695.44;;;19.50;100.00
34931;BME280;21134;49.646;8.560;2023-09-18T05:43:00;99691.97;;;19.49;100.00
34931;BME280;21134;49.646;8.560;2023-09-18T05:45:26;99689.38;;;19.49;100.00
34931;BME280;21134;49.646;8.560;2023-09-18T05:47:54;99681.69;;;19.48;100.00
34931;BME280;21134;49.646;8.560;2023-09-18T05:50:27;99670.63;;;19.44;100.00
34931;BME280;21134;49.646;8.560;2023-09-18T05:52:55;99679.41;;;19.42;100.00
34931;BME280;21134;49.646;8.560;2023-09-18T05:55:24;99687.03;;;19.45;100.00
34931;BME280;21134;49.646;8.560;2023-09-18T05:57:52;99673.66;;;19.52;100.00
34931;BME280;21134;49.646;8.560;2023-09-18T06:00:19;99658.03;;;19.54;100.00
34931;BME280;21134;49.646;8.560;2023-09-18T06:02:47;99654.91;;;19.47;100.00
34931;BME280;21134;49.646;8.560;2023-09-18T06:05:13;99647.03;;;19.49;100.00
34931;BME280;21134;49.646;8.560;2023-09-18T06:07:41;99630.63;;;19.48;100.00
34931;BME280;21134;49.646;8.560;2023-09-18T06:10:08;99632.91;;;19.55;100.00
34931;BME280;21134;49.646;8.560;2023-09-18T06:12:37;99643.22;;;19.56;100.00
34931;BME280;21134;49.646;8.560;2023-09-18T06:15:06;99664.50;;;19.63;100.00
34931;BME280;21134;49.646;8.560;2023-09-18T06:17:35;99678.88;;;19.70;100.00
34931;BME280;21134;49.646;8.560;2023-09-18T06:20:02;99670.41;;;19.66;100.00
34931;BME280;21134;49.646;8.560;2023-09-18T06:22:29;99663.50;;;19.65;100.00
34931;BME280;21134;49.646;8.560;2023-09-18T06:24:56;99672.00;;;19.69;100.00
34931;BME280;21134;49.646;8.560;2023-09-18T06:27:22;99680.38;;;19.74;100.00
34931;BME280;21134;49.646;8.560;2023-09-18T06:29:49;99675.13;;;19.76;100.00
34931;BME280;21134;49.646;8.560;2023-09-18T06:32:16;99687.69;;;19.83;100.00
34931;BME280;21134;49.646;8.560;2023-09-18T06:34:43;99681.66;;;19.83;100.00
34931;BME280;21134;49.646;8.560;2023-09-18T06:37:09;99690.81;;;19.90;100.00
34931;BME280;21134;49.646;8.560;2023-09-18T06:39:37;99686.44;;;19.90;100.00
34931;BME280;21134;49.646;8.560;2023-09-18T06:42:05;99710.31;;;19.97;100.00
34931;BME280;21134;49.646;8.560;2023-09-18T06:44:31;99719.66;;;20.01;100.00
34931;BME280;21134;49.646;8.560;2023-09-18T06:46:58;99727.50;;;20.00;100.00
34931;BME280;21134;49.646;8.560;2023-09-18T06:49:26;99738.66;;;20.02;100.00
34931;BME280;21134;49.646;8.560;2023-09-18T06:51:52;99734.06;;;20.07;100.00
34931;BME280;21134;49.646;8.560;2023-09-18T06:54:19;99739.84;;;20.12;100.00
34931;BME280;21134;49.646;8.560;2023-09-18T06:56:45;99745.81;;;20.14;100.00
34931;BME280;21134;49.646;8.560;2023-09-18T06:59:12;99735.19;;;20.18;100.00
34931;BME280;21134;49.646;8.560;2023-09-18T07:01:38;99743.56;;;20.24;100.00
34931;BME280;21134;49.646;8.560;2023-09-18T07:04:05;99744.66;;;20.35;100.00
34931;BME280;21134;49.646;8.560;2023-09-18T07:06:33;99742.22;;;20.32;100.00
34931;BME280;21134;49.646;8.560;2023-09-18T07:08:59;99750.72;;;20.36;100.00
34931;BME280;21134;49.646;8.560;2023-09-18T07:11:27;99750.03;;;20.48;100.00
34931;BME280;21134;49.646;8.560;2023-09-18T07:13:53;99753.91;;;20.41;100.00
34931;BME280;21134;49.646;8.560;2023-09-18T07:16:20;99753.72;;;20.44;100.00
34931;BME280;21134;49.646;8.560;2023-09-18T07:18:46;99744.66;;;20.53;100.00
34931;BME280;21134;49.646;8.560;2023-09-18T07:21:13;99754.50;;;20.46;100.00
34931;BME280;21134;49.646;8.560;2023-09-18T07:23:41;99759.69;;;20.46;100.00
34931;BME280;21134;49.646;8.560;2023-09-18T07:26:07;99756.28;;;20.46;100.00
34931;BME280;21134;49.646;8.560;2023-09-18T07:28:34;99754.50;;;20.46;100.00
34931;BME280;21134;49.646;8.560;2023-09-18T07:31:05;99759.06;;;20.58;99.85
34931;BME280;21134;49.646;8.560;2023-09-18T07:33:31;99761.34;;;20.64;98.90
34931;BME280;21134;49.646;8.560;2023-09-18T07:35:58;99756.72;;;20.70;98.75
34931;BME280;21134;49.646;8.560;2023-09-18T07:38:24;99757.06;;;20.79;95.93
34931;BME280;21134;49.646;8.560;2023-09-18T07:40:52;99754.03;;;20.87;93.68
34931;BME280;21134;49.646;8.560;2023-09-18T07:43:18;99758.13;;;20.91;95.30
34931;BME280;21134;49.646;8.560;2023-09-18T07:45:45;99764.94;;;20.94;94.19
34931;BME280;21134;49.646;8.560;2023-09-18T07:48:11;99752.00;;;20.92;93.49
34931;BME280;21134;49.646;8.560;2023-09-18T07:50:43;99762.41;;;20.92;92.49
34931;BME280;21134;49.646;8.560;2023-09-18T07:53:10;99757.88;;;20.96;91.03
34931;BME280;21134;49.646;8.560;2023-09-18T07:55:36;99773.31;;;20.99;89.58
34931;BME280;21134;49.646;8.560;2023-09-18T07:58:05;99776.75;;;20.99;89.48
34931;BME280;21134;49.646;8.560;2023-09-18T08:00:31;99775.66;;;21.03;88.47
34931;BME280;21134;49.646;8.560;2023-09-18T08:02:58;99780.28;;;20.98;87.91
34931;BME280;21134;49.646;8.560;2023-09-18T08:05:26;99784.97;;;21.07;88.36
34931;BME280;21134;49.646;8.560;2023-09-18T08:07:53;99777.44;;;21.03;88.84
34931;BME280;21134;49.646;8.560;2023-09-18T08:10:22;99788.25;;;21.11;88.14
34931;BME280;21134;49.646;8.560;2023-09-18T08:12:48;99791.94;;;21.07;87.78
34931;BME280;21134;49.646;8.560;2023-09-18T08:15:18;99790.63;;;21.00;88.23
34931;BME280;21134;49.646;8.560;2023-09-18T08:17:45;99804.78;;;21.10;87.50
34931;BME280;21134;49.646;8.560;2023-09-18T08:20:12;99798.16;;;21.04;88.58
34931;BME280;21134;49.646;8.560;2023-09-18T08:22:41;99801.91;;;20.99;88.59
34931;BME280;21134;49.646;8.560;2023-09-18T08:25:07;99788.84;;;21.00;88.46
34931;BME280;21134;49.646;8.560;2023-09-18T08:27:36;99784.22;;;21.05;87.65
34931;BME280;21134;49.646;8.560;2023-09-18T08:30:06;99779.66;;;21.09;87.75
34931;BME280;21134;49.646;8.560;2023-09-18T08:32:34;99779.44;;;21.13;87.92
34931;BME280;21134;49.646;8.560;2023-09-18T08:35:00;99776.81;;;21.13;87.76
34931;BME280;21134;49.646;8.560;2023-09-18T08:37:27;99782.63;;;21.19;87.94
34931;BME280;21134;49.646;8.560;2023-09-18T08:40:17;99777.41;;;21.19;87.95
34931;BME280;21134;49.646;8.560;2023-09-18T08:42:48;99780.50;;;21.25;87.55
34931;BME280;21134;49.646;8.560;2023-09-18T08:45:23;99769.16;;;21.26;88.44
34931;BME280;21134;49.646;8.560;2023-09-18T08:47:54;99767.50;;;21.25;87.90
34931;BME280;21134;49.646;8.560;2023-09-18T08:50:21;99775.66;;;21.35;88.18
34931;BME280;21134;49.646;8.560;2023-09-18T08:52:48;99763.38;;;21.37;87.21
34931;BME280;21134;49.646;8.560;2023-09-18T08:55:16;99760.16;;;21.48;88.04
34931;BME280;21134;49.646;8.560;2023-09-18T08:57:44;99750.88;;;21.58;87.36
34931;BME280;21134;49.646;8.560;2023-09-18T09:00:13;99760.38;;;21.59;85.66
34931;BME280;21134;49.646;8.560;2023-09-18T09:02:42;99759.53;;;21.58;86.25
34931;BME280;21134;49.646;8.560;2023-09-18T09:05:10;99769.19;;;21.56;86.44
34931;BME280;21134;49.646;8.560;2023-09-18T09:07:36;99777.28;;;21.52;86.54
34931;BME280;21134;49.646;8.560;2023-09-18T09:10:03;99766.88;;;21.52;86.45
34931;BME280;21134;49.646;8.560;2023-09-18T09:12:50;99767.06;;;21.63;85.10
34931;BME280;21134;49.646;8.560;2023-09-18T09:15:19;99765.41;;;21.62;85.45
34931;BME280;21134;49.646;8.560;2023-09-18T09:17:46;99770.19;;;21.70;84.48
34931;BME280;21134;49.646;8.560;2023-09-18T09:20:15;99765.34;;;21.78;85.19
34931;BME280;21134;49.646;8.560;2023-09-18T09:22:44;99752.78;;;21.85;84.06
34931;BME280;21134;49.646;8.560;2023-09-18T09:25:24;99775.09;;;21.89;83.45
34931;BME280;21134;49.646;8.560;2023-09-18T09:27:53;99794.75;;;21.94;84.03
34931;BME280;21134;49.646;8.560;2023-09-18T09:30:21;99792.31;;;21.91;83.33
34931;BME280;21134;49.646;8.560;2023-09-18T09:32:49;99807.34;;;22.02;82.74
34931;BME280;21134;49.646;8.560;2023-09-18T09:35:25;99805.81;;;21.98;83.42
34931;BME280;21134;49.646;8.560;2023-09-18T09:37:54;99812.63;;;22.00;83.27
34931;BME280;21134;49.646;8.560;2023-09-18T09:40:22;99814.47;;;21.98;83.49
34931;BME280;21134;49.646;8.560;2023-09-18T09:42:51;99810.50;;;22.07;82.75
34931;BME280;21134;49.646;8.560;2023-09-18T09:45:19;99800.38;;;22.17;83.65
34931;BME280;21134;49.646;8.560;2023-09-18T09:47:46;99813.81;;;22.25;83.12
34931;BME280;21134;49.646;8.560;2023-09-18T09:50:14;99804.69;;;22.18;81.92
34931;BME280;21134;49.646;8.560;2023-09-18T09:52:47;99814.06;;;22.20;81.90
34931;BME280;21134;49.646;8.560;2023-09-18T09:55:18;99805.59;;;22.17;82.58
34931;BME280;21134;49.646;8.560;2023-09-18T09:57:50;99808.81;;;22.06;82.09
34931;BME280;21134;49.646;8.560;2023-09-18T10:00:17;99799.41;;;22.03;82.63
34931;BME280;21134;49.646;8.560;2023-09-18T10:03:00;99797.09;;;21.99;83.07
34931;BME280;21134;49.646;8.560;2023-09-18T10:05:31;99799.72;;;21.99;83.08
34931;BME280;21134;49.646;8.560;2023-09-18T10:08:00;99788.91;;;22.05;83.06
34931;BME280;21134;49.646;8.560;2023-09-18T10:10:30;99803.63;;;22.06;83.30
34931;BME280;21134;49.646;8.560;2023-09-18T10:13:00;99784.44;;;22.07;83.38
34931;BME280;21134;49.646;8.560;2023-09-18T10:15:28;99788.75;;;22.22;83.19
34931;BME280;21134;49.646;8.560;2023-09-18T10:17:56;99785.31;;;22.36;82.45
34931;BME280;21134;49.646;8.560;2023-09-18T10:20:26;99784.00;;;22.58;81.07
34931;BME280;21134;49.646;8.560;2023-09-18T10:22:56;99796.84;;;22.75;80.36
34931;BME280;21134;49.646;8.560;2023-09-18T10:25:29;99787.38;;;23.01;79.62
34931;BME280;21134;49.646;8.560;2023-09-18T10:27:57;99788.09;;;23.03;79.30
34931;BME280;21134;49.646;8.560;2023-09-18T10:30:29;99804.50;;;23.05;78.84
34931;BME280;21134;49.646;8.560;2023-09-18T10:32:56;99800.50;;;23.00;78.73
34931;BME280;21134;49.646;8.560;2023-09-18T10:35:24;99788.09;;;23.03;77.57
34931;BME280;21134;49.646;8.560;2023-09-18T10:37:54;99785.31;;;23.06;78.50
34931;BME280;21134;49.646;8.560;2023-09-18T10:40:21;99783.72;;;23.04;78.08
34931;BME280;21134;49.646;8.560;2023-09-18T10:42:50;99782.69;;;23.06;77.53
34931;BME280;21134;49.646;8.560;2023-09-18T10:45:16;99784.31;;;23.21;77.63
34931;BME280;21134;49.646;8.560;2023-09-18T10:47:44;99800.97;;;23.33;77.99
34931;BME280;21134;49.646;8.560;2023-09-18T10:50:12;99796.56;;;23.34;77.41
34931;BME280;21134;49.646;8.560;2023-09-18T10:52:43;99794.75;;;23.49;76.59
34931;BME280;21134;49.646;8.560;2023-09-18T10:55:11;99802.59;;;23.49;76.67
34931;BME280;21134;49.646;8.560;2023-09-18T10:57:51;99796.13;;;23.67;74.85
34931;BME280;21134;49.646;8.560;2023-09-18T11:00:17;99792.94;;;23.76;75.53
34931;BME280;21134;49.646;8.560;2023-09-18T11:02:49;99792.84;;;23.90;74.35
34931;BME280;21134;49.646;8.560;2023-09-18T11:05:28;99787.84;;;24.13;73.09
34931;BME280;21134;49.646;8.560;2023-09-18T11:08:28;99774.75;;;24.13;73.71
34931;BME280;21134;49.646;8.560;2023-09-18T11:10:57;99771.81;;;24.43;74.18
34931;BME280;21134;49.646;8.560;2023-09-18T11:13:36;99781.06;;;24.60;72.17
34931;BME280;21134;49.646;8.560;2023-09-18T11:16:17;99784.00;;;24.68;71.54
34931;BME280;21134;49.646;8.560;2023-09-18T11:18:47;99794.16;;;24.60;72.14
34931;BME280;21134;49.646;8.560;2023-09-18T11:21:15;99790.22;;;24.54;72.34
34931;BME280;21134;49.646;8.560;2023-09-18T11:23:43;99791.31;;;24.63;71.34
34931;BME280;21134;49.646;8.560;2023-09-18T11:26:10;99784.22;;;24.65;71.32
34931;BME280;21134;49.646;8.560;2023-09-18T11:28:38;99796.50;;;24.52;72.00
34931;BME280;21134;49.646;8.560;2023-09-18T11:31:05;99792.72;;;24.43;72.76
34931;BME280;21134;49.646;8.560;2023-09-18T11:33:34;99784.34;;;24.38;71.70
34931;BME280;21134;49.646;8.560;2023-09-18T11:36:06;99786.66;;;24.17;72.55
34931;BME280;21134;49.646;8.560;2023-09-18T11:38:34;99791.69;;;24.20;72.83
34931;BME280;21134;49.646;8.560;2023-09-18T11:41:19;99789.69;;;24.24;71.82
34931;BME280;21134;49.646;8.560;2023-09-18T11:43:47;99784.38;;;24.51;71.23
34931;BME280;21134;49.646;8.560;2023-09-18T11:46:18;99777.75;;;24.58;70.78
34931;BME280;21134;49.646;8.560;2023-09-18T11:48:46;99788.66;;;24.76;70.00
34931;BME280;21134;49.646;8.560;2023-09-18T11:51:20;99790.91;;;24.69;70.47
34931;BME280;21134;49.646;8.560;2023-09-18T11:53:50;99782.25;;;24.93;70.01
34931;BME280;21134;49.646;8.560;2023-09-18T11:56:18;99775.91;;;25.08;68.89
34931;BME280;21134;49.646;8.560;2023-09-18T11:58:47;99782.03;;;24.96;68.83
34931;BME280;21134;49.646;8.560;2023-09-18T12:01:14;99784.69;;;24.83;68.35
34931;BME280;21134;49.646;8.560;2023-09-18T12:03:41;99778.59;;;24.95;68.03
34931;BME280;21134;49.646;8.560;2023-09-18T12:06:08;99786.28;;;24.73;69.55
34931;BME280;21134;49.646;8.560;2023-09-18T12:08:38;99788.09;;;24.59;69.76
34931;BME280;21134;49.646;8.560;2023-09-18T12:11:06;99791.88;;;24.55;70.75
34931;BME280;21134;49.646;8.560;2023-09-18T12:13:33;99793.25;;;24.48;71.47
34931;BME280;21134;49.646;8.560;2023-09-18T12:16:03;99789.41;;;24.41;71.93
34931;BME280;21134;49.646;8.560;2023-09-18T12:18:31;99789.06;;;24.33;72.39
34931;BME280;21134;49.646;8.560;2023-09-18T12:21:01;99794.09;;;24.23;70.80
34931;BME280;21134;49.646;8.560;2023-09-18T12:23:36;99798.38;;;24.24;70.74
34931;BME280;21134;49.646;8.560;2023-09-18T12:26:03;99795.97;;;24.21;70.33
34931;BME280;21134;49.646;8.560;2023-09-18T12:28:32;99793.88;;;24.26;70.10
34931;BME280;21134;49.646;8.560;2023-09-18T12:31:00;99784.88;;;24.18;71.19
34931;BME280;21134;49.646;8.560;2023-09-18T12:33:33;99795.75;;;24.11;70.50
34931;BME280;21134;49.646;8.560;2023-09-18T12:36:00;99791.38;;;23.99;71.08
34931;BME280;21134;49.646;8.560;2023-09-18T12:38:26;99790.53;;;23.86;71.32
34931;BME280;21134;49.646;8.560;2023-09-18T12:40:53;99796.81;;;23.96;70.53
34931;BME280;21134;49.646;8.560;2023-09-18T12:43:20;99793.69;;;24.04;71.03
34931;BME280;21134;49.646;8.560;2023-09-18T12:45:49;99799.53;;;24.07;70.91
34931;BME280;21134;49.646;8.560;2023-09-18T12:48:17;99797.97;;;24.18;70.86
34931;BME280;21134;49.646;8.560;2023-09-18T12:50:44;99799.41;;;24.34;70.19
34931;BME280;21134;49.646;8.560;2023-09-18T12:53:12;99786.47;;;24.46;70.23
34931;BME280;21134;49.646;8.560;2023-09-18T12:55:39;99781.97;;;24.35;69.58
34931;BME280;21134;49.646;8.560;2023-09-18T12:58:10;99781.75;;;24.38;69.90
34931;BME280;21134;49.646;8.560;2023-09-18T13:00:37;99772.75;;;24.42;69.75